Disclaimer

Please do not use the information listed here in-flight or in-navigation, as they are not provided to us by the airports but are provided by volunteers, so they might be outdated.

Search


Regions


Airport information page

Radio informations:
Tower (TWR) - 122.7 MHz
TRANSIT - 131.7 MHz

Airport informations:
Latitude: 51° 04' 21.02" N
Longitude: 058° 35' 44.11" E
Elevation: 909 feet - 277 meters
Operating hours: 24 hour operations
Operating agency: Civil government, landing fees and diplomatic clearance may be required
Timezone: UTC+5(+6DT)
Fuel: Unknown fuel type or whether there is any fuel.

Runway information:
01/19 - 1980 x 160 feet< - >604 x 49 meters
07/25 - 9515 x 138 feet< - >2900 x 42 meters
07R/25L - 5840 x 300 feet< - >1780 x 91 meters
16/34 - 2030 x 170 feet< - >619 x 52 meters

Recent METARs:
UWOR 190200Z 27003MPS CAVOK M08/M12 Q1024 R25/810055 NOSIG RMK QFE744/0993
UWOR 190200Z 27003MPS CAVOK M08/M12 Q1024 R25/810055 NOSIG RMK QFE744/0993
UWOR 190300Z 27004MPS CAVOK M08/M12 Q1024 R25/810055 NOSIG RMK QFE745/0993

Airport on the map: